sensor_id;sensor_type;location;lat;lon;timestamp;pressure;altitude;pressure_sealevel;temperature;humidity
21100;BME280;10708;50.824;4.408;2023-03-04T00:03:36;101702.25;;;5.42;100.00
21100;BME280;10708;50.824;4.408;2023-03-04T00:08:38;101702.22;;;5.33;100.00
21100;BME280;10708;50.824;4.408;2023-03-04T00:13:42;101708.28;;;5.29;100.00
21100;BME280;10708;50.824;4.408;2023-03-04T00:18:44;101705.69;;;5.31;100.00
21100;BME280;10708;50.824;4.408;2023-03-04T00:23:46;101706.56;;;5.27;100.00
21100;BME280;10708;50.824;4.408;2023-03-04T00:28:50;101703.03;;;5.20;100.00
21100;BME280;10708;50.824;4.408;2023-03-04T00:33:53;101692.59;;;5.23;100.00
21100;BME280;10708;50.824;4.408;2023-03-04T00:38:55;101697.78;;;5.12;100.00
21100;BME280;10708;50.824;4.408;2023-03-04T00:43:59;101699.53;;;5.13;100.00
21100;BME280;10708;50.824;4.408;2023-03-04T00:49:01;101703.94;;;5.25;100.00
21100;BME280;10708;50.824;4.408;2023-03-04T00:54:03;101699.56;;;5.23;100.00
21100;BME280;10708;50.824;4.408;2023-03-04T00:59:07;101693.44;;;5.20;100.00
21100;BME280;10708;50.824;4.408;2023-03-04T01:04:09;101701.31;;;5.24;100.00
21100;BME280;10708;50.824;4.408;2023-03-04T01:09:11;101707.41;;;5.23;100.00
21100;BME280;10708;50.824;4.408;2023-03-04T01:14:15;101707.41;;;5.24;100.00
21100;BME280;10708;50.824;4.408;2023-03-04T01:19:18;101697.88;;;5.34;100.00
21100;BME280;10708;50.824;4.408;2023-03-04T01:24:20;101697.00;;;5.33;100.00
21100;BME280;10708;50.824;4.408;2023-03-04T01:29:24;101698.72;;;5.33;100.00
21100;BME280;10708;50.824;4.408;2023-03-04T01:34:26;101683.06;;;5.28;100.00
21100;BME280;10708;50.824;4.408;2023-03-04T01:39:28;101677.88;;;5.39;100.00
21100;BME280;10708;50.824;4.408;2023-03-04T01:44:32;101681.34;;;5.36;100.00
21100;BME280;10708;50.824;4.408;2023-03-04T01:49:35;101671.78;;;5.37;100.00
21100;BME280;10708;50.824;4.408;2023-03-04T01:54:37;101664.78;;;5.36;100.00
21100;BME280;10708;50.824;4.408;2023-03-04T01:59:41;101649.13;;;5.39;100.00
21100;BME280;10708;50.824;4.408;2023-03-04T02:04:44;101639.53;;;5.36;100.00
21100;BME280;10708;50.824;4.408;2023-03-04T02:09:46;101643.91;;;5.39;100.00
21100;BME280;10708;50.824;4.408;2023-03-04T02:14:50;101637.81;;;5.38;100.00
21100;BME280;10708;50.824;4.408;2023-03-04T02:19:56;101635.19;;;5.35;100.00
21100;BME280;10708;50.824;4.408;2023-03-04T02:25:08;101630.84;;;5.39;100.00
21100;BME280;10708;50.824;4.408;2023-03-04T02:30:13;101623.84;;;5.33;100.00
21100;BME280;10708;50.824;4.408;2023-03-04T02:35:16;101611.69;;;5.37;100.00
21100;BME280;10708;50.824;4.408;2023-03-04T02:40:22;101604.69;;;5.34;100.00
21100;BME280;10708;50.824;4.408;2023-03-04T02:45:35;101600.34;;;5.39;100.00
21100;BME280;10708;50.824;4.408;2023-03-04T02:50:40;101606.47;;;5.38;100.00
21100;BME280;10708;50.824;4.408;2023-03-04T02:55:43;101593.38;;;5.41;100.00
21100;BME280;10708;50.824;4.408;2023-03-04T03:00:50;101592.53;;;5.47;100.00
21100;BME280;10708;50.824;4.408;2023-03-04T03:05:53;101597.75;;;5.45;100.00
21100;BME280;10708;50.824;4.408;2023-03-04T03:10:55;101597.75;;;5.45;100.00
21100;BME280;10708;50.824;4.408;2023-03-04T03:15:59;101587.31;;;5.48;100.00
21100;BME280;10708;50.824;4.408;2023-03-04T03:21:01;101596.91;;;5.46;100.00
21100;BME280;10708;50.824;4.408;2023-03-04T03:26:04;101596.88;;;5.45;100.00
21100;BME280;10708;50.824;4.408;2023-03-04T03:31:08;101590.81;;;5.47;100.00
21100;BME280;10708;50.824;4.408;2023-03-04T03:36:10;101600.34;;;5.50;100.00
21100;BME280;10708;50.824;4.408;2023-03-04T03:41:12;101602.97;;;5.41;100.00
21100;BME280;10708;50.824;4.408;2023-03-04T03:46:16;101608.19;;;5.42;100.00
21100;BME280;10708;50.824;4.408;2023-03-04T03:51:19;101603.84;;;5.38;100.00
21100;BME280;10708;50.824;4.408;2023-03-04T03:56:21;101600.34;;;5.41;100.00
21100;BME280;10708;50.824;4.408;2023-03-04T04:01:24;101602.09;;;5.42;100.00
21100;BME280;10708;50.824;4.408;2023-03-04T04:06:27;101607.31;;;5.43;100.00
21100;BME280;10708;50.824;4.408;2023-03-04T04:11:29;101610.81;;;5.42;100.00
21100;BME280;10708;50.824;4.408;2023-03-04T04:16:33;101607.34;;;5.39;100.00
21100;BME280;10708;50.824;4.408;2023-03-04T04:21:35;101608.19;;;5.44;100.00
21100;BME280;10708;50.824;4.408;2023-03-04T04:26:37;101597.75;;;5.51;100.00
21100;BME280;10708;50.824;4.408;2023-03-04T04:31:42;101605.59;;;5.42;100.00
21100;BME280;10708;50.824;4.408;2023-03-04T04:36:45;101604.72;;;5.49;100.00
21100;BME280;10708;50.824;4.408;2023-03-04T04:41:47;101606.47;;;5.49;100.00
21100;BME280;10708;50.824;4.408;2023-03-04T04:46:51;101602.97;;;5.50;100.00
21100;BME280;10708;50.824;4.408;2023-03-04T04:51:53;101608.22;;;5.48;100.00
21100;BME280;10708;50.824;4.408;2023-03-04T04:56:55;101607.34;;;5.52;100.00
21100;BME280;10708;50.824;4.408;2023-03-04T05:01:59;101616.06;;;5.59;100.00
21100;BME280;10708;50.824;4.408;2023-03-04T05:07:02;101611.72;;;5.56;100.00
21100;BME280;10708;50.824;4.408;2023-03-04T05:12:04;101619.53;;;5.52;100.00
21100;BME280;10708;50.824;4.408;2023-03-04T05:17:08;101611.69;;;5.52;100.00
21100;BME280;10708;50.824;4.408;2023-03-04T05:22:10;101615.16;;;5.51;100.00
21100;BME280;10708;50.824;4.408;2023-03-04T05:27:12;101606.47;;;5.50;100.00
21100;BME280;10708;50.824;4.408;2023-03-04T05:32:16;101614.28;;;5.50;100.00
21100;BME280;10708;50.824;4.408;2023-03-04T05:37:18;101606.44;;;5.40;100.00
21100;BME280;10708;50.824;4.408;2023-03-04T05:42:21;101611.69;;;5.43;100.00
21100;BME280;10708;50.824;4.408;2023-03-04T05:47:25;101607.31;;;5.42;100.00
21100;BME280;10708;50.824;4.408;2023-03-04T05:52:27;101609.94;;;5.40;100.00
21100;BME280;10708;50.824;4.408;2023-03-04T05:57:29;101613.44;;;5.47;100.00
21100;BME280;10708;50.824;4.408;2023-03-04T06:02:33;101616.91;;;5.41;100.00
21100;BME280;10708;50.824;4.408;2023-03-04T06:07:35;101614.31;;;5.49;100.00
21100;BME280;10708;50.824;4.408;2023-03-04T06:12:38;101613.41;;;5.42;100.00
21100;BME280;10708;50.824;4.408;2023-03-04T06:17:42;101623.03;;;5.48;100.00
21100;BME280;10708;50.824;4.408;2023-03-04T06:22:45;101624.78;;;5.49;100.00
21100;BME280;10708;50.824;4.408;2023-03-04T06:27:47;101630.00;;;5.49;100.00
21100;BME280;10708;50.824;4.408;2023-03-04T06:32:51;101636.94;;;5.44;100.00
21100;BME280;10708;50.824;4.408;2023-03-04T06:37:53;101641.31;;;5.46;100.00
21100;BME280;10708;50.824;4.408;2023-03-04T06:42:55;101641.28;;;5.43;100.00
21100;BME280;10708;50.824;4.408;2023-03-04T06:48:00;101645.69;;;5.56;100.00
21100;BME280;10708;50.824;4.408;2023-03-04T06:53:03;101651.78;;;5.55;100.00
21100;BME280;10708;50.824;4.408;2023-03-04T06:58:05;101649.16;;;5.54;100.00
21100;BME280;10708;50.824;4.408;2023-03-04T07:03:10;101659.59;;;5.60;100.00
21100;BME280;10708;50.824;4.408;2023-03-04T07:08:12;101652.63;;;5.59;100.00
21100;BME280;10708;50.824;4.408;2023-03-04T07:13:14;101650.03;;;5.61;100.00
21100;BME280;10708;50.824;4.408;2023-03-04T07:18:19;101658.75;;;5.63;100.00
21100;BME280;10708;50.824;4.408;2023-03-04T07:23:21;101663.09;;;5.61;100.00
21100;BME280;10708;50.824;4.408;2023-03-04T07:28:23;101663.13;;;5.70;100.00
21100;BME280;10708;50.824;4.408;2023-03-04T07:33:27;101669.22;;;5.72;100.00
21100;BME280;10708;50.824;4.408;2023-03-04T07:38:29;101677.06;;;5.73;100.00
21100;BME280;10708;50.824;4.408;2023-03-04T07:43:32;101680.56;;;5.77;100.00
21100;BME280;10708;50.824;4.408;2023-03-04T07:48:35;101687.53;;;5.79;100.00
21100;BME280;10708;50.824;4.408;2023-03-04T07:53:42;101690.16;;;5.78;100.00
21100;BME280;10708;50.824;4.408;2023-03-04T07:58:46;101693.63;;;5.81;100.00
21100;BME280;10708;50.824;4.408;2023-03-04T08:03:52;101699.75;;;5.76;100.00
21100;BME280;10708;50.824;4.408;2023-03-04T08:08:56;101704.09;;;5.80;100.00
21100;BME280;10708;50.824;4.408;2023-03-04T08:13:59;101705.84;;;5.87;100.00
21100;BME280;10708;50.824;4.408;2023-03-04T08:19:03;101706.72;;;5.87;100.00
21100;BME280;10708;50.824;4.408;2023-03-04T08:24:06;101711.13;;;5.93;100.00
21100;BME280;10708;50.824;4.408;2023-03-04T08:29:11;101712.00;;;5.95;100.00
21100;BME280;10708;50.824;4.408;2023-03-04T08:34:17;101722.47;;;6.03;100.00
21100;BME280;10708;50.824;4.408;2023-03-04T08:39:20;101725.94;;;5.96;100.00
21100;BME280;10708;50.824;4.408;2023-03-04T08:44:23;101718.97;;;5.91;100.00
21100;BME280;10708;50.824;4.408;2023-03-04T08:49:26;101718.09;;;5.91;100.00
21100;BME280;10708;50.824;4.408;2023-03-04T08:54:29;101717.22;;;5.92;100.00
21100;BME280;10708;50.824;4.408;2023-03-04T08:59:31;101718.09;;;5.94;100.00
21100;BME280;10708;50.824;4.408;2023-03-04T09:04:35;101712.88;;;6.03;100.00
21100;BME280;10708;50.824;4.408;2023-03-04T09:09:38;101712.88;;;6.03;100.00
21100;BME280;10708;50.824;4.408;2023-03-04T09:14:43;101721.59;;;6.13;100.00
21100;BME280;10708;50.824;4.408;2023-03-04T09:19:48;101720.72;;;6.05;100.00
21100;BME280;10708;50.824;4.408;2023-03-04T09:24:50;101712.88;;;5.92;100.00
21100;BME280;10708;50.824;4.408;2023-03-04T09:29:53;101711.16;;;6.08;100.00
21100;BME280;10708;50.824;4.408;2023-03-04T09:34:56;101705.91;;;6.10;100.00
21100;BME280;10708;50.824;4.408;2023-03-04T09:39:59;101705.03;;;6.14;100.00
21100;BME280;10708;50.824;4.408;2023-03-04T09:45:03;101703.31;;;6.17;100.00
21100;BME280;10708;50.824;4.408;2023-03-04T09:50:11;101695.47;;;6.17;100.00
21100;BME280;10708;50.824;4.408;2023-03-04T09:55:18;101698.06;;;6.33;100.00
21100;BME280;10708;50.824;4.408;2023-03-04T10:00:23;101701.56;;;6.36;100.00
21100;BME280;10708;50.824;4.408;2023-03-04T10:05:29;101703.28;;;6.45;100.00
21100;BME280;10708;50.824;4.408;2023-03-04T10:10:35;101697.19;;;6.29;100.00
21100;BME280;10708;50.824;4.408;2023-03-04T10:15:41;101683.22;;;6.50;100.00
21100;BME280;10708;50.824;4.408;2023-03-04T10:20:52;101691.00;;;6.86;100.00
21100;BME280;10708;50.824;4.408;2023-03-04T10:25:55;101684.84;;;6.99;100.00
21100;BME280;10708;50.824;4.408;2023-03-04T10:31:02;101693.56;;;7.06;100.00
21100;BME280;10708;50.824;4.408;2023-03-04T10:36:33;101689.22;;;6.90;100.00
21100;BME280;10708;50.824;4.408;2023-03-04T10:41:41;101690.97;;;6.89;100.00
21100;BME280;10708;50.824;4.408;2023-03-04T10:46:46;101699.75;;;6.87;100.00
21100;BME280;10708;50.824;4.408;2023-03-04T10:51:52;101687.53;;;6.84;100.00
21100;BME280;10708;50.824;4.408;2023-03-04T10:56:57;101692.66;;;7.10;100.00
21100;BME280;10708;50.824;4.408;2023-03-04T11:02:01;101686.38;;;7.52;100.00
21100;BME280;10708;50.824;4.408;2023-03-04T11:07:14;101677.63;;;7.55;100.00
21100;BME280;10708;50.824;4.408;2023-03-04T11:12:20;101681.06;;;7.67;100.00
21100;BME280;10708;50.824;4.408;2023-03-04T11:17:25;101669.00;;;7.36;100.00
21100;BME280;10708;50.824;4.408;2023-03-04T11:22:30;101677.78;;;7.20;100.00
21100;BME280;10708;50.824;4.408;2023-03-04T11:27:37;101665.56;;;7.22;100.00
21100;BME280;10708;50.824;4.408;2023-03-04T11:32:45;101657.69;;;7.25;100.00
21100;BME280;10708;50.824;4.408;2023-03-04T11:37:57;101671.75;;;7.06;100.00
21100;BME280;10708;50.824;4.408;2023-03-04T11:43:05;101656.06;;;6.89;100.00
21100;BME280;10708;50.824;4.408;2023-03-04T11:48:12;101653.31;;;7.19;100.00
21100;BME280;10708;50.824;4.408;2023-03-04T11:53:43;101642.78;;;7.33;100.00
21100;BME280;10708;50.824;4.408;2023-03-04T12:04:35;101626.06;;;7.57;100.00
21100;BME280;10708;50.824;4.408;2023-03-04T12:09:47;101613.69;;;7.75;100.00
21100;BME280;10708;50.824;4.408;2023-03-04T12:15:02;101615.38;;;7.81;100.00
21100;BME280;10708;50.824;4.408;2023-03-04T12:20:21;101609.34;;;7.70;100.00
21100;BME280;10708;50.824;4.408;2023-03-04T12:25:40;101607.72;;;7.55;100.00
21100;BME280;10708;50.824;4.408;2023-03-04T12:30:51;101610.47;;;7.32;100.00
21100;BME280;10708;50.824;4.408;2023-03-04T12:36:03;101598.16;;;7.48;100.00
21100;BME280;10708;50.824;4.408;2023-03-04T12:41:20;101578.97;;;7.41;100.00
21100;BME280;10708;50.824;4.408;2023-03-04T12:46:31;101575.31;;;7.64;100.00
21100;BME280;10708;50.824;4.408;2023-03-04T12:51:41;101572.63;;;7.73;100.00
21100;BME280;10708;50.824;4.408;2023-03-04T12:56:51;101569.91;;;7.81;100.00
21100;BME280;10708;50.824;4.408;2023-03-04T13:02:00;101566.25;;;8.01;100.00
21100;BME280;10708;50.824;4.408;2023-03-04T13:07:13;101561.19;;;7.80;100.00
21100;BME280;10708;50.824;4.408;2023-03-04T13:12:20;101561.25;;;7.72;100.00
21100;BME280;10708;50.824;4.408;2023-03-04T13:17:39;101556.84;;;7.77;100.00
21100;BME280;10708;50.824;4.408;2023-03-04T13:22:50;101551.63;;;7.71;100.00
21100;BME280;10708;50.824;4.408;2023-03-04T13:28:15;101540.34;;;7.63;100.00
21100;BME280;10708;50.824;4.408;2023-03-04T13:33:50;101533.38;;;7.59;100.00
21100;BME280;10708;50.824;4.408;2023-03-04T13:38:58;101539.63;;;7.46;100.00
21100;BME280;10708;50.824;4.408;2023-03-04T13:44:05;101524.72;;;7.51;100.00
21100;BME280;10708;50.824;4.408;2023-03-04T13:49:27;101512.50;;;7.49;100.00
21100;BME280;10708;50.824;4.408;2023-03-04T13:54:31;101509.38;;;8.02;100.00
21100;BME280;10708;50.824;4.408;2023-03-04T13:59:38;101519.38;;;7.62;100.00
21100;BME280;10708;50.824;4.408;2023-03-04T14:04:44;101515.88;;;7.66;100.00
21100;BME280;10708;50.824;4.408;2023-03-04T14:09:55;101510.44;;;7.87;100.00
21100;BME280;10708;50.824;4.408;2023-03-04T14:15:00;101500.84;;;7.83;100.00
21100;BME280;10708;50.824;4.408;2023-03-04T14:20:06;101496.44;;;7.88;100.00
21100;BME280;10708;50.824;4.408;2023-03-04T14:25:23;101495.50;;;7.94;100.00
21100;BME280;10708;50.824;4.408;2023-03-04T14:30:29;101495.38;;;8.07;100.00
21100;BME280;10708;50.824;4.408;2023-03-04T14:35:31;101483.34;;;7.84;100.00
21100;BME280;10708;50.824;4.408;2023-03-04T14:40:37;101498.22;;;7.82;100.00
21100;BME280;10708;50.824;4.408;2023-03-04T14:45:44;101486.06;;;7.77;100.00
21100;BME280;10708;50.824;4.408;2023-03-04T14:50:50;101477.31;;;7.75;100.00
21100;BME280;10708;50.824;4.408;2023-03-04T14:55:57;101479.94;;;7.74;100.00
21100;BME280;10708;50.824;4.408;2023-03-04T15:01:14;101466.06;;;7.66;100.00
21100;BME280;10708;50.824;4.408;2023-03-04T15:06:18;101461.69;;;7.66;100.00
21100;BME280;10708;50.824;4.408;2023-03-04T15:11:23;101462.59;;;7.61;100.00
21100;BME280;10708;50.824;4.408;2023-03-04T15:16:51;101455.69;;;7.52;100.00
21100;BME280;10708;50.824;4.408;2023-03-04T15:22:04;101456.63;;;7.45;100.00
21100;BME280;10708;50.824;4.408;2023-03-04T15:27:08;101450.50;;;7.46;100.00
21100;BME280;10708;50.824;4.408;2023-03-04T15:32:11;101452.22;;;7.49;100.00
21100;BME280;10708;50.824;4.408;2023-03-04T15:37:18;101441.78;;;7.46;100.00
21100;BME280;10708;50.824;4.408;2023-03-04T15:42:21;101445.19;;;7.52;100.00
21100;BME280;10708;50.824;4.408;2023-03-04T15:47:24;101439.78;;;7.69;100.00
21100;BME280;10708;50.824;4.408;2023-03-04T15:52:27;101431.97;;;7.67;100.00
21100;BME280;10708;50.824;4.408;2023-03-04T15:57:30;101432.00;;;7.61;100.00
21100;BME280;10708;50.824;4.408;2023-03-04T16:02:35;101429.25;;;7.75;100.00
21100;BME280;10708;50.824;4.408;2023-03-04T16:07:39;101417.97;;;7.68;100.00
21100;BME280;10708;50.824;4.408;2023-03-04T16:12:41;101416.94;;;7.82;100.00
21100;BME280;10708;50.824;4.408;2023-03-04T16:17:44;101418.75;;;7.75;100.00
21100;BME280;10708;50.824;4.408;2023-03-04T16:22:51;101411.75;;;7.75;100.00
21100;BME280;10708;50.824;4.408;2023-03-04T16:27:55;101417.88;;;7.76;100.00
21100;BME280;10708;50.824;4.408;2023-03-04T16:32:59;101413.53;;;7.73;100.00
21100;BME280;10708;50.824;4.408;2023-03-04T16:38:04;101418.84;;;7.67;100.00
21100;BME280;10708;50.824;4.408;2023-03-04T16:43:08;101411.81;;;7.69;100.00
21100;BME280;10708;50.824;4.408;2023-03-04T16:48:10;101404.00;;;7.66;100.00
21100;BME280;10708;50.824;4.408;2023-03-04T16:53:26;101399.66;;;7.62;100.00
21100;BME280;10708;50.824;4.408;2023-03-04T16:58:30;101397.94;;;7.60;100.00
21100;BME280;10708;50.824;4.408;2023-03-04T17:03:32;101405.84;;;7.57;100.00
21100;BME280;10708;50.824;4.408;2023-03-04T17:08:36;101407.59;;;7.58;100.00
21100;BME280;10708;50.824;4.408;2023-03-04T17:13:39;101404.16;;;7.50;100.00
21100;BME280;10708;50.824;4.408;2023-03-04T17:18:42;101397.16;;;7.49;100.00
21100;BME280;10708;50.824;4.408;2023-03-04T17:23:47;101400.66;;;7.49;100.00
21100;BME280;10708;50.824;4.408;2023-03-04T17:28:50;101408.59;;;7.45;100.00
21100;BME280;10708;50.824;4.408;2023-03-04T17:33:52;101415.50;;;7.49;100.00
21100;BME280;10708;50.824;4.408;2023-03-04T17:38:56;101411.19;;;7.45;100.00
21100;BME280;10708;50.824;4.408;2023-03-04T17:43:58;101403.34;;;7.41;100.00
21100;BME280;10708;50.824;4.408;2023-03-04T17:49:01;101407.78;;;7.36;100.00
21100;BME280;10708;50.824;4.408;2023-03-04T17:54:06;101401.69;;;7.36;100.00
21100;BME280;10708;50.824;4.408;2023-03-04T17:59:12;101405.94;;;7.46;100.00
21100;BME280;10708;50.824;4.408;2023-03-04T18:04:15;101414.81;;;7.31;100.00
21100;BME280;10708;50.824;4.408;2023-03-04T18:09:19;101417.41;;;7.34;100.00
21100;BME280;10708;50.824;4.408;2023-03-04T18:14:21;101413.94;;;7.31;100.00
21100;BME280;10708;50.824;4.408;2023-03-04T18:19:23;101411.38;;;7.28;100.00
21100;BME280;10708;50.824;4.408;2023-03-04T18:24:27;101420.09;;;7.28;100.00
21100;BME280;10708;50.824;4.408;2023-03-04T18:29:29;101421.88;;;7.25;100.00
21100;BME280;10708;50.824;4.408;2023-03-04T18:34:34;101421.84;;;7.26;100.00
21100;BME280;10708;50.824;4.408;2023-03-04T18:39:37;101431.47;;;7.23;100.00
21100;BME280;10708;50.824;4.408;2023-03-04T18:44:40;101430.69;;;7.13;100.00
21100;BME280;10708;50.824;4.408;2023-03-04T18:49:43;101429.00;;;7.08;100.00
21100;BME280;10708;50.824;4.408;2023-03-04T18:54:48;101427.25;;;7.07;100.00
21100;BME280;10708;50.824;4.408;2023-03-04T18:59:53;101426.38;;;7.06;100.00
21100;BME280;10708;50.824;4.408;2023-03-04T19:05:00;101436.88;;;7.03;100.00
21100;BME280;10708;50.824;4.408;2023-03-04T19:10:06;101427.28;;;7.03;100.00
21100;BME280;10708;50.824;4.408;2023-03-04T19:15:10;101432.56;;;6.96;100.00
21100;BME280;10708;50.824;4.408;2023-03-04T19:20:13;101429.97;;;6.90;100.00
21100;BME280;10708;50.824;4.408;2023-03-04T19:25:18;101427.41;;;6.84;100.00
21100;BME280;10708;50.824;4.408;2023-03-04T19:30:20;101430.97;;;6.78;100.00
21100;BME280;10708;50.824;4.408;2023-03-04T19:35:22;101424.88;;;6.72;100.00
21100;BME280;10708;50.824;4.408;2023-03-04T19:40:26;101428.38;;;6.69;100.00
21100;BME280;10708;50.824;4.408;2023-03-04T19:45:29;101429.28;;;6.63;100.00
21100;BME280;10708;50.824;4.408;2023-03-04T19:50:31;101424.94;;;6.62;100.00
21100;BME280;10708;50.824;4.408;2023-03-04T19:55:37;101427.59;;;6.56;100.00
21100;BME280;10708;50.824;4.408;2023-03-04T20:00:39;101414.50;;;6.53;100.00
21100;BME280;10708;50.824;4.408;2023-03-04T20:05:42;101418.88;;;6.54;100.00
21100;BME280;10708;50.824;4.408;2023-03-04T20:10:46;101413.63;;;6.54;100.00
21100;BME280;10708;50.824;4.408;2023-03-04T20:15:48;101411.88;;;6.56;100.00
21100;BME280;10708;50.824;4.408;2023-03-04T20:20:54;101418.00;;;6.57;100.00
21100;BME280;10708;50.824;4.408;2023-03-04T20:25:58;101414.50;;;6.56;100.00
21100;BME280;10708;50.824;4.408;2023-03-04T20:31:12;101413.66;;;6.50;100.00
21100;BME280;10708;50.824;4.408;2023-03-04T20:36:15;101418.00;;;6.55;100.00
21100;BME280;10708;50.824;4.408;2023-03-04T20:41:20;101426.72;;;6.54;100.00
21100;BME280;10708;50.824;4.408;2023-03-04T20:46:27;101426.72;;;6.53;100.00
21100;BME280;10708;50.824;4.408;2023-03-04T20:51:31;101426.72;;;6.51;100.00
21100;BME280;10708;50.824;4.408;2023-03-04T20:56:36;101423.28;;;6.40;100.00
21100;BME280;10708;50.824;4.408;2023-03-04T21:01:41;101419.81;;;6.41;100.00
21100;BME280;10708;50.824;4.408;2023-03-04T21:06:44;101413.75;;;6.36;100.00
21100;BME280;10708;50.824;4.408;2023-03-04T21:11:48;101415.50;;;6.31;100.00
21100;BME280;10708;50.824;4.408;2023-03-04T21:16:53;101410.25;;;6.33;100.00
21100;BME280;10708;50.824;4.408;2023-03-04T21:21:57;101414.63;;;6.38;100.00
21100;BME280;10708;50.824;4.408;2023-03-04T21:27:02;101413.75;;;6.33;100.00
21100;BME280;10708;50.824;4.408;2023-03-04T21:32:11;101401.59;;;6.27;100.00
21100;BME280;10708;50.824;4.408;2023-03-04T21:37:14;101399.81;;;6.29;100.00
21100;BME280;10708;50.824;4.408;2023-03-04T21:42:18;101398.09;;;6.19;100.00
21100;BME280;10708;50.824;4.408;2023-03-04T21:47:21;101402.47;;;6.23;100.00
21100;BME280;10708;50.824;4.408;2023-03-04T21:52:24;101399.00;;;6.18;100.00
21100;BME280;10708;50.824;4.408;2023-03-04T21:57:28;101402.47;;;6.20;100.00
21100;BME280;10708;50.824;4.408;2023-03-04T22:02:31;101401.63;;;6.11;100.00
21100;BME280;10708;50.824;4.408;2023-03-04T22:07:33;101392.94;;;6.09;100.00
21100;BME280;10708;50.824;4.408;2023-03-04T22:12:37;101390.34;;;6.06;100.00
21100;BME280;10708;50.824;4.408;2023-03-04T22:17:39;101384.25;;;6.02;100.00
21100;BME280;10708;50.824;4.408;2023-03-04T22:22:45;101378.19;;;5.99;100.00
21100;BME280;10708;50.824;4.408;2023-03-04T22:27:49;101376.41;;;6.04;100.00
21100;BME280;10708;50.824;4.408;2023-03-04T22:32:51;101371.16;;;6.02;100.00
21100;BME280;10708;50.824;4.408;2023-03-04T22:37:53;101373.78;;;6.02;100.00
21100;BME280;10708;50.824;4.408;2023-03-04T22:42:57;101369.44;;;6.00;100.00
21100;BME280;10708;50.824;4.408;2023-03-04T22:48:00;101356.38;;;5.95;100.00
21100;BME280;10708;50.824;4.408;2023-03-04T22:53:02;101362.50;;;5.96;100.00
21100;BME280;10708;50.824;4.408;2023-03-04T22:58:09;101360.75;;;5.93;100.00
21100;BME280;10708;50.824;4.408;2023-03-04T23:03:11;101364.25;;;5.89;100.00
21100;BME280;10708;50.824;4.408;2023-03-04T23:08:14;101360.75;;;5.93;100.00
21100;BME280;10708;50.824;4.408;2023-03-04T23:13:17;101349.44;;;5.86;100.00
21100;BME280;10708;50.824;4.408;2023-03-04T23:18:19;101358.13;;;5.91;100.00
21100;BME280;10708;50.824;4.408;2023-03-04T23:23:22;101349.47;;;5.79;100.00
21100;BME280;10708;50.824;4.408;2023-03-04T23:28:26;101352.06;;;5.76;100.00
21100;BME280;10708;50.824;4.408;2023-03-04T23:33:28;101352.94;;;5.78;100.00
21100;BME280;10708;50.824;4.408;2023-03-04T23:38:30;101347.72;;;5.75;100.00
21100;BME280;10708;50.824;4.408;2023-03-04T23:43:34;101352.94;;;5.75;100.00
21100;BME280;10708;50.824;4.408;2023-03-04T23:48:36;101347.72;;;5.73;100.00
21100;BME280;10708;50.824;4.408;2023-03-04T23:53:39;101343.38;;;5.74;100.00
21100;BME280;10708;50.824;4.408;2023-03-04T23:58:43;101342.50;;;5.76;100.00
